Time;durP1;ratioP1;P1;durP2;ratioP2;P2;SDS_P1;SDS_P2;PMS_P1;PMS_P2;Temp;Humidity;BMP_temperature;BMP_pressure;BME280_temperature;BME280_humidity;BME280_pressure;Samples;Min_cycle;Max_cycle;Signal;HPM_P1;HPM_P2
2023/08/02 00:01:47;;;;;;;;;;;;;;;20.08;80.47;99752.77;107891;1259;62802;-74
2023/08/02 00:04:14;;;;;;;;;;;;;;;20.07;80.62;99752.17;107928;1258;61345;-75
2023/08/02 00:06:41;;;;;;;;;;;;;;;20.00;80.57;99747.92;107862;1254;73361;-76
2023/08/02 00:09:08;;;;;;;;;;;;;;;19.91;80.81;99753.71;107880;1255;71689;-74
2023/08/02 00:11:34;;;;;;;;;;;;;;;19.88;81.06;99746.71;107940;1257;61355;-75
2023/08/02 00:14:01;;;;;;;;;;;;;;;19.78;81.32;99745.17;107980;1259;61781;-75
2023/08/02 00:16:28;;;;;;;;;;;;;;;19.76;81.77;99740.45;107858;1256;61151;-74
2023/08/02 00:18:55;;;;;;;;;;;;;;;19.78;82.03;99742.13;107913;1259;74677;-75
2023/08/02 00:21:21;;;;;;;;;;;;;;;19.77;82.17;99749.29;107903;1260;61218;-76
2023/08/02 00:23:48;;;;;;;;;;;;;;;19.78;82.34;99748.73;107951;1254;75933;-75
2023/08/02 00:26:15;;;;;;;;;;;;;;;19.79;82.46;99748.67;107875;1254;62927;-75
2023/08/02 00:28:41;;;;;;;;;;;;;;;19.82;82.58;99750.31;108070;1254;61288;-76
2023/08/02 00:31:08;;;;;;;;;;;;;;;19.87;82.79;99751.48;107881;1260;73597;-76
2023/08/02 00:33:35;;;;;;;;;;;;;;;19.87;82.76;99753.13;107906;1254;72532;-74
2023/08/02 00:36:02;;;;;;;;;;;;;;;19.85;82.90;99751.91;107955;1257;71539;-74
2023/08/02 00:38:29;;;;;;;;;;;;;;;19.87;83.09;99752.27;108038;1257;61979;-75
2023/08/02 00:41:02;;;;;;;;;;;;;;;19.90;83.18;99747.89;107944;1254;60211;-75
2023/08/02 00:43:29;;;;;;;;;;;;;;;19.94;83.30;99747.36;107968;1254;76707;-75
2023/08/02 00:45:56;;;;;;;;;;;;;;;19.97;83.42;99749.55;108064;1254;73032;-75
2023/08/02 00:48:23;;;;;;;;;;;;;;;19.98;83.40;99752.70;108002;1254;72686;-75
2023/08/02 00:50:49;;;;;;;;;;;;;;;19.99;83.25;99757.28;107972;1254;61759;-75
2023/08/02 00:53:16;;;;;;;;;;;;;;;20.00;83.18;99753.21;108070;1259;61074;-76
2023/08/02 00:55:43;;;;;;;;;;;;;;;20.02;83.28;99752.27;108032;1254;74156;-75
2023/08/02 00:58:10;;;;;;;;;;;;;;;20.03;83.21;99754.30;107981;1260;74053;-75
2023/08/02 01:00:37;;;;;;;;;;;;;;;20.01;83.18;99751.52;107956;1254;72719;-75
2023/08/02 01:03:04;;;;;;;;;;;;;;;19.99;83.28;99747.84;107872;1258;61928;-74
2023/08/02 01:05:32;;;;;;;;;;;;;;;20.00;83.40;99748.40;107769;1254;61218;-75
2023/08/02 01:08:00;;;;;;;;;;;;;;;20.02;83.34;99747.30;107969;1254;75907;-75
2023/08/02 01:10:33;;;;;;;;;;;;;;;20.00;83.32;99747.48;108058;1254;72458;-75
2023/08/02 01:13:02;;;;;;;;;;;;;;;19.98;83.20;99747.18;107727;1255;72746;-75
2023/08/02 01:15:29;;;;;;;;;;;;;;;19.94;83.24;99746.04;107965;1254;61276;-75
2023/08/02 01:17:57;;;;;;;;;;;;;;;19.89;83.20;99742.27;107675;1260;61138;-76
2023/08/02 01:20:25;;;;;;;;;;;;;;;19.88;83.28;99751.21;107481;1257;74501;-76
2023/08/02 01:22:52;;;;;;;;;;;;;;;19.88;83.36;99750.60;107773;1257;72080;-76
2023/08/02 01:25:19;;;;;;;;;;;;;;;19.88;83.21;99747.67;107872;1254;71525;-75
2023/08/02 01:27:48;;;;;;;;;;;;;;;19.90;83.35;99747.09;107921;1254;61909;-75
2023/08/02 01:30:15;;;;;;;;;;;;;;;19.90;83.50;99745.79;107758;1256;61224;-75
2023/08/02 01:32:42;;;;;;;;;;;;;;;19.91;83.46;99746.84;107778;1254;77402;-75
2023/08/02 01:35:11;;;;;;;;;;;;;;;19.91;83.48;99746.29;107739;1257;73952;-76
2023/08/02 01:37:39;;;;;;;;;;;;;;;19.89;83.30;99746.45;107665;1255;71578;-75
2023/08/02 01:40:07;;;;;;;;;;;;;;;19.88;83.24;99745.27;107790;1254;61932;-75
2023/08/02 01:42:34;;;;;;;;;;;;;;;19.86;83.35;99742.46;108001;1255;61321;-75
2023/08/02 01:45:01;;;;;;;;;;;;;;;19.84;83.38;99747.08;107883;1256;75884;-75
2023/08/02 01:47:28;;;;;;;;;;;;;;;19.84;83.28;99745.99;107878;1254;72505;-75
2023/08/02 01:49:55;;;;;;;;;;;;;;;19.81;83.38;99745.90;107958;1254;71961;-75
2023/08/02 01:52:22;;;;;;;;;;;;;;;19.77;83.27;99744.90;108016;1254;61820;-75
2023/08/02 01:54:51;;;;;;;;;;;;;;;19.78;83.47;99749.16;108027;1260;61231;-75
2023/08/02 01:57:18;;;;;;;;;;;;;;;19.79;83.17;99751.41;107911;1254;74605;-75
2023/08/02 01:59:46;;;;;;;;;;;;;;;19.78;83.05;99748.02;107832;1260;72698;-75
2023/08/02 02:02:13;;;;;;;;;;;;;;;19.74;83.01;99745.71;107835;1256;72615;-75
2023/08/02 02:04:42;;;;;;;;;;;;;;;19.71;82.98;99743.77;108049;1254;62777;-75
2023/08/02 02:07:09;;;;;;;;;;;;;;;19.71;82.98;99749.13;108122;1254;61103;-75
2023/08/02 02:09:36;;;;;;;;;;;;;;;19.71;83.09;99753.37;107884;1254;74784;-75
2023/08/02 02:12:03;;;;;;;;;;;;;;;19.67;82.93;99755.33;108115;1254;73198;-74
2023/08/02 02:14:30;;;;;;;;;;;;;;;19.58;83.12;99749.21;108034;1254;71138;-75
2023/08/02 02:16:58;;;;;;;;;;;;;;;19.51;83.24;99745.34;107980;1254;61925;-76
2023/08/02 02:19:25;;;;;;;;;;;;;;;19.47;83.26;99746.05;108079;1254;61158;-74
2023/08/02 02:21:52;;;;;;;;;;;;;;;19.42;83.48;99748.21;108098;1254;74594;-76
2023/08/02 02:24:20;;;;;;;;;;;;;;;19.41;83.52;99748.65;108091;1254;72609;-73
2023/08/02 02:26:46;;;;;;;;;;;;;;;19.42;83.74;99741.02;108137;1254;73069;-74
2023/08/02 02:29:13;;;;;;;;;;;;;;;19.43;83.72;99739.05;108070;1254;62097;-74
2023/08/02 02:31:40;;;;;;;;;;;;;;;19.45;83.64;99736.62;107890;1254;61247;-75
2023/08/02 02:34:07;;;;;;;;;;;;;;;19.41;83.49;99740.99;108015;1259;74488;-75
2023/08/02 02:36:34;;;;;;;;;;;;;;;19.31;83.51;99748.95;107958;1254;71670;-75
2023/08/02 02:39:01;;;;;;;;;;;;;;;19.19;83.87;99750.21;108070;1254;72647;-75
2023/08/02 02:41:27;;;;;;;;;;;;;;;19.13;84.19;99753.27;108108;1254;61240;-75
2023/08/02 02:43:54;;;;;;;;;;;;;;;19.14;84.31;99752.13;107914;1254;61156;-75
2023/08/02 02:46:21;;;;;;;;;;;;;;;19.14;84.52;99749.48;107915;1257;75713;-74
2023/08/02 02:48:48;;;;;;;;;;;;;;;19.16;84.82;99753.45;107761;1254;72823;-75
2023/08/02 02:51:17;;;;;;;;;;;;;;;19.21;84.83;99754.52;107938;1260;72886;-75
2023/08/02 02:53:44;;;;;;;;;;;;;;;19.25;84.79;99752.27;107797;1254;62040;-75
2023/08/02 02:56:11;;;;;;;;;;;;;;;19.29;84.77;99755.49;107909;1254;61123;-75
2023/08/02 02:58:38;;;;;;;;;;;;;;;19.29;84.77;99751.58;107876;1257;75515;-75
2023/08/02 03:01:04;;;;;;;;;;;;;;;19.24;84.68;99754.31;107891;1259;72621;-75
2023/08/02 03:03:32;;;;;;;;;;;;;;;19.23;84.79;99764.58;107759;1256;73051;-75
2023/08/02 03:05:58;;;;;;;;;;;;;;;19.24;84.86;99766.92;107887;1254;61878;-75
2023/08/02 03:08:26;;;;;;;;;;;;;;;19.25;85.12;99758.47;108042;1254;61167;-75
2023/08/02 03:10:52;;;;;;;;;;;;;;;19.27;85.20;99757.14;107998;1254;74640;-76
2023/08/02 03:13:19;;;;;;;;;;;;;;;19.30;85.31;99755.46;107985;1257;73860;-75
2023/08/02 03:15:47;;;;;;;;;;;;;;;19.34;85.43;99753.69;107924;1259;72708;-75
2023/08/02 03:18:14;;;;;;;;;;;;;;;19.41;85.61;99750.96;107887;1257;61115;-75
2023/08/02 03:20:41;;;;;;;;;;;;;;;19.48;85.62;99748.09;107985;1254;61239;-74
2023/08/02 03:23:09;;;;;;;;;;;;;;;19.55;85.57;99748.41;107821;1254;74555;-75
2023/08/02 03:25:36;;;;;;;;;;;;;;;19.61;85.54;99749.63;107914;1254;75180;-75
2023/08/02 03:28:02;;;;;;;;;;;;;;;19.61;85.44;99751.64;108075;1259;72664;-75
2023/08/02 03:30:31;;;;;;;;;;;;;;;19.62;85.62;99750.33;108029;1254;61268;-75
2023/08/02 03:32:58;;;;;;;;;;;;;;;19.63;85.62;99749.60;107790;1254;61146;-75
2023/08/02 03:35:25;;;;;;;;;;;;;;;19.68;86.05;99750.56;107884;1257;73158;-75
2023/08/02 03:37:52;;;;;;;;;;;;;;;19.78;86.09;99753.77;108019;1254;72783;-75
2023/08/02 03:40:19;;;;;;;;;;;;;;;19.93;85.98;99751.36;107965;1254;72711;-75
2023/08/02 03:42:46;;;;;;;;;;;;;;;20.01;86.17;99755.79;107930;1254;62420;-75
2023/08/02 03:45:13;;;;;;;;;;;;;;;20.11;86.06;99760.91;107904;1254;61264;-75
2023/08/02 03:47:40;;;;;;;;;;;;;;;20.22;85.73;99759.08;107862;1260;74927;-74
2023/08/02 03:50:07;;;;;;;;;;;;;;;20.31;85.62;99753.77;107982;1256;72613;-74
2023/08/02 03:52:34;;;;;;;;;;;;;;;20.41;85.82;99753.60;107964;1255;71786;-75
2023/08/02 03:55:01;;;;;;;;;;;;;;;20.52;85.90;99759.92;107934;1254;61160;-75
2023/08/02 03:57:27;;;;;;;;;;;;;;;20.66;85.61;99758.91;107949;1254;61282;-75
2023/08/02 03:59:56;;;;;;;;;;;;;;;20.75;85.82;99754.09;107881;1254;76050;-75
2023/08/02 04:02:23;;;;;;;;;;;;;;;20.81;85.64;99749.82;107966;1254;72694;-75
2023/08/02 04:04:50;;;;;;;;;;;;;;;20.85;85.29;99748.05;107940;1254;71461;-75
2023/08/02 04:07:16;;;;;;;;;;;;;;;20.88;85.33;99752.34;108004;1254;61234;-75
2023/08/02 04:09:43;;;;;;;;;;;;;;;20.90;85.16;99753.16;107925;1254;61260;-75
2023/08/02 04:12:10;;;;;;;;;;;;;;;20.94;85.20;99745.44;107893;1254;74782;-75
2023/08/02 04:14:36;;;;;;;;;;;;;;;20.97;85.05;99741.73;107977;1257;72887;-75
2023/08/02 04:17:03;;;;;;;;;;;;;;;21.02;85.06;99743.11;108014;1254;71264;-75
2023/08/02 04:19:30;;;;;;;;;;;;;;;21.11;85.28;99747.48;107910;1254;61993;-74
2023/08/02 04:21:57;;;;;;;;;;;;;;;21.20;85.38;99744.53;107925;1258;61126;-75
2023/08/02 04:24:24;;;;;;;;;;;;;;;21.30;85.00;99744.32;108058;1254;75394;-75
2023/08/02 04:26:51;;;;;;;;;;;;;;;21.41;84.99;99739.79;107958;1254;72723;-75
2023/08/02 04:29:18;;;;;;;;;;;;;;;21.51;84.81;99740.06;108001;1254;73905;-75
2023/08/02 04:31:45;;;;;;;;;;;;;;;21.63;84.47;99737.15;107858;1255;61855;-75
2023/08/02 04:34:12;;;;;;;;;;;;;;;21.75;84.29;99736.77;107802;1254;61256;-75
2023/08/02 04:36:39;;;;;;;;;;;;;;;21.88;84.17;99733.80;108043;1254;74909;-75
2023/08/02 04:39:07;;;;;;;;;;;;;;;22.00;83.99;99726.54;107970;1254;72445;-76
2023/08/02 04:41:34;;;;;;;;;;;;;;;22.13;83.61;99726.38;107886;1254;72679;-76
2023/08/02 04:44:01;;;;;;;;;;;;;;;22.24;83.24;99725.23;108027;1254;62399;-75
2023/08/02 04:46:28;;;;;;;;;;;;;;;22.33;82.85;99721.92;107928;1254;61125;-75
2023/08/02 04:48:55;;;;;;;;;;;;;;;22.41;82.64;99717.77;108058;1254;74608;-75
2023/08/02 04:51:22;;;;;;;;;;;;;;;22.52;82.28;99714.77;108045;1254;72817;-79
2023/08/02 04:53:49;;;;;;;;;;;;;;;22.64;81.87;99711.77;107794;1256;70397;-76
2023/08/02 04:56:16;;;;;;;;;;;;;;;22.78;81.58;99708.84;108063;1254;62059;-76
2023/08/02 04:58:43;;;;;;;;;;;;;;;22.91;81.00;99703.98;107834;1254;61123;-75
2023/08/02 05:01:10;;;;;;;;;;;;;;;23.05;80.66;99707.60;108052;1254;74686;-75
2023/08/02 05:03:37;;;;;;;;;;;;;;;23.16;80.06;99710.68;107938;1255;71042;-75
2023/08/02 05:06:04;;;;;;;;;;;;;;;23.28;79.49;99706.59;107997;1259;72774;-76
2023/08/02 05:08:36;;;;;;;;;;;;;;;23.40;79.02;99701.27;107982;1256;61735;-75
2023/08/02 05:11:06;;;;;;;;;;;;;;;23.52;78.27;99699.45;107965;1254;61246;-74
2023/08/02 05:13:33;;;;;;;;;;;;;;;23.63;77.41;99695.18;108027;1257;75580;-74
2023/08/02 05:16:01;;;;;;;;;;;;;;;23.74;76.61;99691.17;107990;1254;73821;-74
2023/08/02 05:18:28;;;;;;;;;;;;;;;23.82;76.03;99692.83;107964;1254;71359;-75
2023/08/02 05:20:54;;;;;;;;;;;;;;;23.85;75.71;99692.96;107910;1255;61936;-75
2023/08/02 05:23:21;;;;;;;;;;;;;;;23.91;75.52;99691.41;107958;1254;59949;-76
2023/08/02 05:25:48;;;;;;;;;;;;;;;23.99;75.62;99688.95;108052;1254;73271;-77
2023/08/02 05:28:15;;;;;;;;;;;;;;;24.11;75.20;99688.04;107992;1254;72625;-74
2023/08/02 05:30:41;;;;;;;;;;;;;;;24.24;74.60;99685.64;107918;1258;72571;-75
2023/08/02 05:33:08;;;;;;;;;;;;;;;24.37;74.36;99685.26;107994;1254;61905;-75
2023/08/02 05:35:36;;;;;;;;;;;;;;;24.50;73.70;99684.44;108040;1254;61151;-75
2023/08/02 05:38:04;;;;;;;;;;;;;;;24.63;72.69;99679.73;108026;1254;74226;-76
2023/08/02 05:40:31;;;;;;;;;;;;;;;24.74;72.19;99678.38;108043;1254;73758;-77
2023/08/02 05:42:58;;;;;;;;;;;;;;;24.85;71.80;99677.08;107994;1254;72721;-75
2023/08/02 05:45:25;;;;;;;;;;;;;;;25.01;71.49;99675.67;107987;1254;63068;-75
2023/08/02 05:47:52;;;;;;;;;;;;;;;25.17;70.74;99672.73;107988;1256;61320;-76
2023/08/02 05:50:19;;;;;;;;;;;;;;;25.25;70.04;99669.38;108047;1254;75964;-77
2023/08/02 05:52:46;;;;;;;;;;;;;;;25.33;69.49;99672.88;107994;1258;73788;-75
2023/08/02 05:55:14;;;;;;;;;;;;;;;25.39;68.91;99671.83;107877;1255;73830;-76
2023/08/02 05:57:41;;;;;;;;;;;;;;;25.49;68.49;99666.75;107966;1254;63017;-75
2023/08/02 06:00:08;;;;;;;;;;;;;;;25.56;68.28;99666.02;108069;1254;61343;-76
2023/08/02 06:02:36;;;;;;;;;;;;;;;25.67;67.55;99660.48;109133;1254;73536;-76
2023/08/02 06:05:03;;;;;;;;;;;;;;;25.79;67.53;99661.58;108009;1257;72690;-76
2023/08/02 06:07:30;;;;;;;;;;;;;;;25.95;67.34;99659.11;107877;1254;73742;-75
2023/08/02 06:09:56;;;;;;;;;;;;;;;26.10;66.81;99654.71;107954;1255;61098;-75
2023/08/02 06:12:23;;;;;;;;;;;;;;;26.15;66.29;99653.11;107954;1254;59058;-75
2023/08/02 06:14:50;;;;;;;;;;;;;;;26.20;66.00;99653.13;107672;1254;73638;-75
2023/08/02 06:17:16;;;;;;;;;;;;;;;26.26;65.47;99651.52;107807;1254;72472;-75
2023/08/02 06:19:45;;;;;;;;;;;;;;;26.32;64.90;99653.57;108071;1256;72513;-75
2023/08/02 06:22:13;;;;;;;;;;;;;;;26.43;64.91;99654.00;107880;1254;61122;-76
2023/08/02 06:24:42;;;;;;;;;;;;;;;26.56;64.85;99653.05;107946;1254;61118;-76
2023/08/02 06:27:09;;;;;;;;;;;;;;;26.71;64.28;99653.55;108061;1254;74558;-76
2023/08/02 06:29:36;;;;;;;;;;;;;;;26.87;63.35;99646.54;107971;1259;72846;-76
2023/08/02 06:32:03;;;;;;;;;;;;;;;27.04;62.55;99642.41;107768;1254;71904;-75
2023/08/02 06:34:30;;;;;;;;;;;;;;;27.17;62.15;99645.88;107892;1254;58955;-76
2023/08/02 06:36:57;;;;;;;;;;;;;;;27.29;61.41;99645.18;107992;1254;61148;-75
2023/08/02 06:39:23;;;;;;;;;;;;;;;27.39;60.88;99637.19;107698;1254;74654;-76
2023/08/02 06:41:50;;;;;;;;;;;;;;;27.40;60.55;99638.67;107868;1257;63944;-76
2023/08/02 06:44:20;;;;;;;;;;;;;;;27.43;60.28;99640.87;107991;1259;64194;-76
2023/08/02 06:46:47;;;;;;;;;;;;;;;27.46;59.76;99644.48;107947;1257;61585;-74
2023/08/02 06:49:13;;;;;;;;;;;;;;;27.48;59.73;99640.33;107936;1254;61216;-76
2023/08/02 06:51:40;;;;;;;;;;;;;;;27.56;59.99;99639.44;107882;1258;64557;-76
2023/08/02 06:54:08;;;;;;;;;;;;;;;27.69;59.77;99638.88;107876;1257;63933;-76
2023/08/02 06:56:36;;;;;;;;;;;;;;;27.85;59.20;99638.23;107984;1254;72769;-76
2023/08/02 06:59:02;;;;;;;;;;;;;;;27.98;58.73;99638.74;107935;1255;61218;-76
2023/08/02 07:01:29;;;;;;;;;;;;;;;28.09;58.42;99636.27;107879;1254;59901;-76
2023/08/02 07:03:58;;;;;;;;;;;;;;;28.19;57.95;99634.60;108004;1254;74656;-76
2023/08/02 07:06:25;;;;;;;;;;;;;;;28.23;57.56;99631.05;107996;1254;63913;-76
2023/08/02 07:08:52;;;;;;;;;;;;;;;28.30;56.60;99632.66;107880;1257;63364;-75
2023/08/02 07:11:19;;;;;;;;;;;;;;;28.37;56.19;99630.20;107918;1258;61274;-75
2023/08/02 07:14:02;;;;;;;;;;;;;;;28.46;56.16;99629.39;107926;1254;61093;-76
2023/08/02 07:16:29;;;;;;;;;;;;;;;28.56;55.95;99629.09;107900;1254;65976;-76
2023/08/02 07:18:56;;;;;;;;;;;;;;;28.64;55.73;99630.55;107924;1254;63782;-76
2023/08/02 07:21:23;;;;;;;;;;;;;;;28.69;55.33;99632.63;107822;1254;71660;-76
2023/08/02 07:23:49;;;;;;;;;;;;;;;28.74;55.10;99633.55;107855;1254;60728;-75
2023/08/02 07:26:16;;;;;;;;;;;;;;;28.78;54.79;99631.23;107826;1254;61090;-76
2023/08/02 07:28:43;;;;;;;;;;;;;;;28.82;54.82;99629.48;107855;1255;67569;-75
2023/08/02 07:31:13;;;;;;;;;;;;;;;28.89;54.20;99626.05;107820;1254;63451;-76
2023/08/02 07:33:40;;;;;;;;;;;;;;;29.02;53.39;99628.81;107874;1256;64423;-75
2023/08/02 07:36:17;;;;;;;;;;;;;;;29.15;52.30;99629.02;107639;1256;61230;-75
2023/08/02 07:38:45;;;;;;;;;;;;;;;29.27;51.52;99628.52;107963;1256;61199;-75
2023/08/02 07:41:12;;;;;;;;;;;;;;;29.35;51.10;99630.98;108046;1254;65900;-76
2023/08/02 07:43:39;;;;;;;;;;;;;;;29.40;50.96;99629.60;107944;1254;65327;-79
2023/08/02 07:46:14;;;;;;;;;;;;;;;29.47;50.88;99631.19;108009;1256;64054;-78
2023/08/02 07:48:41;;;;;;;;;;;;;;;29.50;50.03;99628.71;107936;1254;61154;-78
2023/08/02 07:51:07;;;;;;;;;;;;;;;29.44;49.93;99629.64;107992;1254;59743;-77
2023/08/02 07:53:37;;;;;;;;;;;;;;;29.39;50.23;99630.31;107901;1259;64746;-77
2023/08/02 07:56:04;;;;;;;;;;;;;;;29.42;49.80;99631.63;107985;1254;63902;-77
2023/08/02 07:58:31;;;;;;;;;;;;;;;29.45;49.29;99634.81;107924;1254;63955;-77
2023/08/02 08:01:03;;;;;;;;;;;;;;;29.40;48.94;99631.48;107909;1254;61248;-77
2023/08/02 08:03:30;;;;;;;;;;;;;;;29.33;48.65;99628.95;107902;1254;61301;-78
2023/08/02 08:05:57;;;;;;;;;;;;;;;29.30;48.54;99627.41;107829;1257;67160;-77
2023/08/02 08:08:24;;;;;;;;;;;;;;;29.36;48.50;99630.10;107946;1257;66542;-77
2023/08/02 08:10:51;;;;;;;;;;;;;;;29.49;48.78;99629.27;107782;1254;65082;-78
2023/08/02 08:13:18;;;;;;;;;;;;;;;29.65;48.87;99628.67;108025;1254;61134;-77
2023/08/02 08:15:44;;;;;;;;;;;;;;;29.79;48.70;99617.83;108014;1254;61230;-76
2023/08/02 08:18:11;;;;;;;;;;;;;;;29.91;47.99;99613.75;108065;1254;66144;-76
2023/08/02 08:20:38;;;;;;;;;;;;;;;30.00;47.50;99612.07;108036;1254;64057;-77
2023/08/02 08:23:04;;;;;;;;;;;;;;;30.05;47.23;99611.61;108114;1254;63848;-77
2023/08/02 08:25:32;;;;;;;;;;;;;;;30.08;47.24;99609.77;108080;1254;61370;-77
2023/08/02 08:27:59;;;;;;;;;;;;;;;30.11;47.26;99608.32;107999;1254;61123;-77
2023/08/02 08:30:26;;;;;;;;;;;;;;;30.14;46.77;99611.50;108167;1254;66161;-78
2023/08/02 08:32:53;;;;;;;;;;;;;;;30.20;46.96;99605.64;108061;1256;62667;-78
2023/08/02 08:35:20;;;;;;;;;;;;;;;30.29;46.50;99606.23;107659;1259;63967;-78
2023/08/02 08:37:49;;;;;;;;;;;;;;;30.40;46.05;99604.75;107805;1254;59384;-78
2023/08/02 08:40:19;;;;;;;;;;;;;;;30.47;45.64;99602.60;108942;1254;59297;-76
2023/08/02 08:42:50;;;;;;;;;;;;;;;30.54;45.20;99599.65;107816;1254;67630;-77
2023/08/02 08:45:17;;;;;;;;;;;;;;;30.65;45.56;99595.64;107843;1255;64461;-77
2023/08/02 08:47:44;;;;;;;;;;;;;;;30.82;45.46;99599.02;107786;1258;64931;-77
2023/08/02 08:50:11;;;;;;;;;;;;;;;30.99;45.05;99597.89;107755;1254;61268;-78
2023/08/02 08:52:38;;;;;;;;;;;;;;;31.16;44.24;99592.89;108044;1255;61004;-77
2023/08/02 08:55:06;;;;;;;;;;;;;;;31.29;44.52;99591.22;107557;1254;66170;-77
2023/08/02 08:57:33;;;;;;;;;;;;;;;31.42;44.21;99590.88;107993;1254;64046;-76
2023/08/02 09:00:03;;;;;;;;;;;;;;;31.66;43.11;99591.67;107568;1254;64711;-78
2023/08/02 09:02:30;;;;;;;;;;;;;;;31.53;42.49;99589.78;107916;1254;61238;-78
2023/08/02 09:04:57;;;;;;;;;;;;;;;31.44;42.84;99584.99;108010;1254;61291;-78
2023/08/02 09:07:25;;;;;;;;;;;;;;;31.42;42.86;99581.41;107864;1254;65996;-78
2023/08/02 09:09:52;;;;;;;;;;;;;;;31.42;43.30;99581.40;107698;1257;64372;-76
2023/08/02 09:12:19;;;;;;;;;;;;;;;31.50;42.99;99579.05;107912;1255;63045;-77
2023/08/02 09:15:00;;;;;;;;;;;;;;;31.79;42.45;99571.55;107634;1256;61451;-76
2023/08/02 09:17:27;;;;;;;;;;;;;;;31.88;42.36;99572.25;107727;1256;61241;-77
2023/08/02 09:20:06;;;;;;;;;;;;;;;31.90;41.76;99572.98;107779;1254;66920;-78
2023/08/02 09:22:33;;;;;;;;;;;;;;;31.88;41.78;99572.41;108389;1256;64716;-78
2023/08/02 09:25:02;;;;;;;;;;;;;;;31.88;41.84;99570.75;107661;1254;64000;-77
2023/08/02 09:27:29;;;;;;;;;;;;;;;31.91;41.99;99568.65;108011;1254;59613;-78
2023/08/02 09:29:56;;;;;;;;;;;;;;;31.97;42.04;99565.91;107978;1254;61134;-75
2023/08/02 09:32:24;;;;;;;;;;;;;;;32.07;42.02;99563.41;107615;1255;65922;-75
2023/08/02 09:34:55;;;;;;;;;;;;;;;32.14;41.53;99562.39;108025;1254;66780;-76
2023/08/02 09:37:29;;;;;;;;;;;;;;;32.20;41.60;99558.93;108193;1256;62827;-76
2023/08/02 09:39:56;;;;;;;;;;;;;;;32.29;41.62;99555.34;107919;1254;59467;-76
2023/08/02 09:42:26;;;;;;;;;;;;;;;32.36;41.54;99552.35;107714;1256;59456;-75
2023/08/02 09:44:54;;;;;;;;;;;;;;;32.37;41.35;99553.49;107585;1254;66215;-75
2023/08/02 09:47:21;;;;;;;;;;;;;;;32.26;41.20;99551.94;107785;1256;63936;-74
2023/08/02 09:50:01;;;;;;;;;;;;;;;31.90;41.54;99550.66;107699;1254;65503;-73
2023/08/02 09:52:28;;;;;;;;;;;;;;;31.70;41.88;99547.60;107636;1254;61262;-73
2023/08/02 09:54:55;;;;;;;;;;;;;;;31.57;42.24;99548.88;107667;1254;61975;-73
2023/08/02 09:57:22;;;;;;;;;;;;;;;31.59;42.18;99549.86;107606;1254;66127;-74
2023/08/02 09:59:49;;;;;;;;;;;;;;;31.91;42.09;99544.34;107699;1256;64116;-73
2023/08/02 10:02:16;;;;;;;;;;;;;;;32.06;42.30;99541.73;107884;1254;63857;-74
2023/08/02 10:04:43;;;;;;;;;;;;;;;32.26;42.25;99535.98;107686;1254;61221;-73
2023/08/02 10:07:10;;;;;;;;;;;;;;;32.43;41.63;99534.84;107614;1257;61099;-72
2023/08/02 10:09:37;;;;;;;;;;;;;;;32.54;41.15;99533.41;107681;1254;67057;-73
2023/08/02 10:12:04;;;;;;;;;;;;;;;32.57;40.61;99528.59;107483;1254;65487;-73
2023/08/02 10:14:31;;;;;;;;;;;;;;;32.60;40.43;99530.27;107652;1254;63897;-73
2023/08/02 10:17:01;;;;;;;;;;;;;;;32.59;40.53;99532.72;107755;1257;61228;-73
2023/08/02 10:19:29;;;;;;;;;;;;;;;32.59;39.91;99529.41;107659;1254;61285;-73
2023/08/02 10:21:59;;;;;;;;;;;;;;;32.56;39.37;99527.43;107859;1254;65883;-73
2023/08/02 10:24:26;;;;;;;;;;;;;;;32.59;39.58;99521.59;107575;1254;64092;-74
2023/08/02 10:27:00;;;;;;;;;;;;;;;32.69;39.69;99516.30;107664;1254;63874;-73
2023/08/02 10:29:27;;;;;;;;;;;;;;;32.75;39.72;99515.38;107641;1254;61058;-73
2023/08/02 10:31:54;;;;;;;;;;;;;;;32.78;39.75;99514.02;107560;1257;61753;-73
2023/08/02 10:34:34;;;;;;;;;;;;;;;32.80;39.92;99513.02;107638;1254;64517;-73
2023/08/02 10:37:01;;;;;;;;;;;;;;;32.83;39.48;99507.00;107634;1256;65329;-75
2023/08/02 10:39:53;;;;;;;;;;;;;;;32.84;39.34;99504.70;108221;1256;65687;-73
2023/08/02 10:42:24;;;;;;;;;;;;;;;32.81;39.24;99505.09;107407;1254;61298;-73
2023/08/02 10:44:53;;;;;;;;;;;;;;;32.78;39.24;99500.26;107671;1254;61587;-73
2023/08/02 10:47:30;;;;;;;;;;;;;;;32.77;39.16;99498.23;107537;1254;67080;-73
2023/08/02 10:49:57;;;;;;;;;;;;;;;32.75;39.18;99498.84;107327;1254;65426;-73
2023/08/02 10:52:24;;;;;;;;;;;;;;;32.69;39.53;99493.39;107428;1254;63965;-73
2023/08/02 10:55:09;;;;;;;;;;;;;;;32.59;39.55;99488.10;107412;1254;61346;-76
2023/08/02 10:57:36;;;;;;;;;;;;;;;32.52;39.83;99485.35;107580;1254;61242;-75
2023/08/02 11:00:23;;;;;;;;;;;;;;;32.50;39.98;99479.95;107647;1254;65856;-75
2023/08/02 11:02:50;;;;;;;;;;;;;;;32.27;40.66;99475.82;107411;1254;64079;-75
2023/08/02 11:05:37;;;;;;;;;;;;;;;32.12;41.20;99470.57;107299;1254;64071;-75
2023/08/02 11:08:04;;;;;;;;;;;;;;;32.12;41.67;99466.23;107603;1259;60109;-75
2023/08/02 11:10:31;;;;;;;;;;;;;;;32.18;41.38;99466.24;107620;1254;61153;-74
2023/08/02 11:12:58;;;;;;;;;;;;;;;32.25;41.60;99465.29;107571;1254;68801;-74
2023/08/02 11:15:25;;;;;;;;;;;;;;;32.36;41.68;99458.30;107699;1257;67408;-74
2023/08/02 11:17:56;;;;;;;;;;;;;;;32.71;40.64;99454.61;107871;1254;65000;-75
2023/08/02 11:20:25;;;;;;;;;;;;;;;32.86;40.28;99452.26;107654;1254;61650;-74
2023/08/02 11:22:52;;;;;;;;;;;;;;;33.05;40.27;99453.41;107786;1256;61095;-74
2023/08/02 11:25:19;;;;;;;;;;;;;;;32.98;40.15;99451.33;107711;1254;66567;-74
2023/08/02 11:28:06;;;;;;;;;;;;;;;32.91;39.89;99453.14;107796;1254;64835;-74
2023/08/02 11:30:33;;;;;;;;;;;;;;;32.91;39.44;99452.17;107630;1259;67051;-74
2023/08/02 11:33:00;;;;;;;;;;;;;;;32.95;39.34;99449.81;107519;1254;260445;-75
2023/08/02 11:35:27;;;;;;;;;;;;;;;33.15;38.73;99446.42;107506;1260;61368;-75
2023/08/02 11:37:54;;;;;;;;;;;;;;;33.37;38.41;99443.83;107689;1258;66727;-75
2023/08/02 11:40:21;;;;;;;;;;;;;;;33.52;38.45;99444.85;107716;1255;63795;-75
2023/08/02 11:42:53;;;;;;;;;;;;;;;33.65;38.12;99444.30;107933;1258;66530;-76
2023/08/02 11:45:30;;;;;;;;;;;;;;;33.75;37.20;99441.55;107622;1255;61115;-75
2023/08/02 11:47:57;;;;;;;;;;;;;;;33.81;36.87;99442.15;107844;1254;61097;-75
2023/08/02 11:50:37;;;;;;;;;;;;;;;33.84;36.70;99442.29;107974;1258;66052;-75
2023/08/02 11:53:04;;;;;;;;;;;;;;;33.82;36.00;99441.80;107490;1254;62967;-73
2023/08/02 11:55:32;;;;;;;;;;;;;;;33.75;35.96;99440.66;107617;1258;63750;-73
2023/08/02 11:57:59;;;;;;;;;;;;;;;33.68;36.41;99439.68;107634;1254;60680;-75
2023/08/02 12:00:26;;;;;;;;;;;;;;;33.66;36.47;99434.60;107621;1254;61337;-75
2023/08/02 12:02:53;;;;;;;;;;;;;;;33.70;36.80;99432.36;107686;1256;74957;-74
2023/08/02 12:05:23;;;;;;;;;;;;;;;33.77;36.99;99438.25;107699;1254;64945;-75
2023/08/02 12:07:49;;;;;;;;;;;;;;;33.75;36.35;99440.53;107722;1254;62432;-74
2023/08/02 12:10:27;;;;;;;;;;;;;;;33.63;36.52;99444.91;107687;1256;61203;-74
2023/08/02 12:12:54;;;;;;;;;;;;;;;33.50;37.00;99446.23;108005;1256;61566;-74
2023/08/02 12:15:21;;;;;;;;;;;;;;;33.37;37.25;99443.58;107671;1258;65938;-75
2023/08/02 12:18:00;;;;;;;;;;;;;;;33.26;37.28;99434.73;107692;1254;64106;-74
2023/08/02 12:20:33;;;;;;;;;;;;;;;33.14;37.39;99432.95;107601;1254;66502;-74
2023/08/02 12:22:59;;;;;;;;;;;;;;;33.03;37.62;99435.69;108512;1256;58962;-74
2023/08/02 12:25:26;;;;;;;;;;;;;;;32.95;37.68;99432.80;107946;1256;62109;-73
2023/08/02 12:28:06;;;;;;;;;;;;;;;32.90;37.69;99431.66;107504;1254;66771;-75
2023/08/02 12:30:33;;;;;;;;;;;;;;;32.89;38.17;99431.60;107636;1257;65055;-75
2023/08/02 12:33:00;;;;;;;;;;;;;;;32.89;38.47;99431.99;107625;1254;62805;-73
2023/08/02 12:35:27;;;;;;;;;;;;;;;32.87;38.64;99427.88;107536;1256;61262;-73
2023/08/02 12:37:55;;;;;;;;;;;;;;;32.83;38.92;99426.71;107658;1254;61143;-72
2023/08/02 12:40:21;;;;;;;;;;;;;;;32.82;38.90;99426.42;107684;1258;64773;-71